createdAt,value
2022-10-17T00:00:18.008Z,4.57
2022-10-17T00:02:44.971Z,4.88
2022-10-17T00:05:12.212Z,4.78
2022-10-17T00:07:39.031Z,4.55
2022-10-17T00:10:07.865Z,5.13
2022-10-17T00:12:35.573Z,4.05
2022-10-17T00:15:07.299Z,5.35
2022-10-17T00:17:34.498Z,5.18
2022-10-17T00:20:01.908Z,4.30
2022-10-17T00:22:28.804Z,4.10
2022-10-17T00:24:55.588Z,4.90
2022-10-17T00:27:22.348Z,4.88
2022-10-17T00:29:50.943Z,4.13
2022-10-17T00:32:18.972Z,4.35
2022-10-17T00:34:46.522Z,4.25
2022-10-17T00:37:13.277Z,4.07
2022-10-17T00:39:39.987Z,5.00
2022-10-17T00:42:06.810Z,4.15
2022-10-17T00:44:33.511Z,4.40
2022-10-17T00:47:10.524Z,4.80
2022-10-17T00:49:39.021Z,4.88
2022-10-17T00:52:11.996Z,3.95
2022-10-17T00:54:42.945Z,4.75
2022-10-17T00:57:09.998Z,4.30
2022-10-17T00:59:38.539Z,4.63
2022-10-17T01:02:13.568Z,4.00
2022-10-17T01:04:42.211Z,4.38
2022-10-17T01:07:09.772Z,4.05
2022-10-17T01:09:37.310Z,5.43
2022-10-17T01:12:52.146Z,4.60
2022-10-17T01:15:28.116Z,4.82
2022-10-17T01:18:05.012Z,4.07
2022-10-17T01:20:59.828Z,4.55
2022-10-17T01:23:38.665Z,5.10
2022-10-17T01:26:42.428Z,4.95
2022-10-17T01:29:18.452Z,4.35
2022-10-17T01:31:52.972Z,4.65
2022-10-17T01:34:33.486Z,4.28
2022-10-17T01:37:14.735Z,4.60
2022-10-17T01:40:21.560Z,3.67
2022-10-17T01:43:07.134Z,3.95
2022-10-17T01:45:38.748Z,4.82
2022-10-17T01:48:11.914Z,3.90
2022-10-17T01:50:42.559Z,3.60
2022-10-17T01:53:16.755Z,5.07
2022-10-17T01:55:45.833Z,4.03
2022-10-17T01:58:27.048Z,3.35
2022-10-17T02:00:54.927Z,2.88
2022-10-17T02:03:22.074Z,3.42
2022-10-17T02:05:48.843Z,4.07
2022-10-17T02:08:28.543Z,5.05
2022-10-17T02:11:03.761Z,4.10
2022-10-17T02:13:55.240Z,4.97
2022-10-17T02:16:47.355Z,5.45
2022-10-17T02:19:52.478Z,4.18
2022-10-17T02:22:34.931Z,4.28
2022-10-17T02:25:07.709Z,2.80
2022-10-17T02:27:34.839Z,3.38
2022-10-17T02:30:32.451Z,2.17
2022-10-17T02:33:06.487Z,2.50
2022-10-17T02:35:36.603Z,3.05
2022-10-17T02:38:05.683Z,3.33
2022-10-17T02:40:32.484Z,3.42
2022-10-17T02:43:01.004Z,3.10
2022-10-17T02:45:30.210Z,2.30
2022-10-17T02:47:57.267Z,2.88
2022-10-17T02:53:09.455Z,2.35
2022-10-17T02:55:40.453Z,2.33
2022-10-17T02:58:10.888Z,2.80
2022-10-17T03:00:40.882Z,3.17
2022-10-17T03:03:30.820Z,2.13
2022-10-17T03:06:01.194Z,2.42
2022-10-17T03:08:28.110Z,2.58
2022-10-17T03:10:56.096Z,2.17
2022-10-17T03:13:23.284Z,2.70
2022-10-17T03:15:50.482Z,2.35
2022-10-17T03:18:17.219Z,3.22
2022-10-17T03:20:45.079Z,2.90
2022-10-17T03:23:11.845Z,2.17
2022-10-17T03:25:38.762Z,2.35
2022-10-17T03:28:05.782Z,2.75
2022-10-17T03:30:33.610Z,2.17
2022-10-17T03:33:00.880Z,3.22
2022-10-17T03:35:27.889Z,3.25
2022-10-17T03:37:58.163Z,2.95
2022-10-17T03:40:26.925Z,2.15
2022-10-17T03:42:54.229Z,2.28
2022-10-17T03:45:21.024Z,2.95
2022-10-17T03:47:48.430Z,3.00
2022-10-17T03:50:15.644Z,2.45
2022-10-17T03:52:47.284Z,2.75
2022-10-17T03:55:14.670Z,2.97
2022-10-17T03:57:43.422Z,3.03
2022-10-17T04:00:13.262Z,2.78
2022-10-17T04:02:48.883Z,3.40
2022-10-17T04:05:18.666Z,2.85
2022-10-17T04:07:46.175Z,2.88
2022-10-17T04:10:14.713Z,2.67
2022-10-17T04:12:41.931Z,2.75
2022-10-17T04:15:09.553Z,3.65
2022-10-17T04:17:38.322Z,3.08
2022-10-17T04:20:07.174Z,4.05
2022-10-17T04:22:34.760Z,3.58
2022-10-17T04:25:01.741Z,4.75
2022-10-17T04:27:34.635Z,3.78
2022-10-17T04:30:01.567Z,4.50
2022-10-17T04:32:30.988Z,4.35
2022-10-17T04:35:04.987Z,4.07
2022-10-17T04:37:32.376Z,3.70
2022-10-17T04:40:02.500Z,3.33
2022-10-17T04:42:32.316Z,3.45
2022-10-17T04:44:59.639Z,3.65
2022-10-17T04:47:27.204Z,3.92
2022-10-17T04:49:57.738Z,3.22
2022-10-17T04:52:25.313Z,3.50
2022-10-17T04:54:53.017Z,3.92
2022-10-17T04:57:21.284Z,3.50
2022-10-17T04:59:58.779Z,3.40
2022-10-17T05:02:48.232Z,4.05
2022-10-17T05:05:15.679Z,3.80
2022-10-17T05:07:44.475Z,5.88
2022-10-17T05:10:14.341Z,4.70
2022-10-17T05:12:44.526Z,5.78
2022-10-17T05:15:12.610Z,4.85
2022-10-17T05:17:40.367Z,5.18
2022-10-17T05:20:08.243Z,5.78
2022-10-17T05:22:38.349Z,5.47
2022-10-17T05:25:08.751Z,4.65
2022-10-17T05:27:35.595Z,5.40
2022-10-17T05:30:02.649Z,5.75
2022-10-17T05:32:33.595Z,6.25
2022-10-17T05:35:01.127Z,6.95
2022-10-17T05:37:29.700Z,7.85
2022-10-17T05:39:57.309Z,7.25
2022-10-17T05:42:25.263Z,8.13
2022-10-17T05:44:52.095Z,8.63
2022-10-17T05:47:19.752Z,9.65
2022-10-17T05:49:51.442Z,7.88
2022-10-17T05:52:23.992Z,8.65
2022-10-17T05:55:07.210Z,9.10
2022-10-17T05:57:33.963Z,10.15
2022-10-17T06:00:01.733Z,8.40
2022-10-17T06:02:41.043Z,8.05
2022-10-17T06:05:08.947Z,9.90
2022-10-17T06:07:36.094Z,9.85
2022-10-17T06:10:04.054Z,9.13
2022-10-17T06:12:31.071Z,10.40
2022-10-17T06:14:59.227Z,9.55
2022-10-17T06:17:26.474Z,9.32
2022-10-17T06:19:53.228Z,10.85
2022-10-17T06:22:20.110Z,9.80
2022-10-17T06:24:46.878Z,10.45
2022-10-17T06:27:14.596Z,9.85
2022-10-17T06:29:41.761Z,10.15
2022-10-17T06:32:11.306Z,10.55
2022-10-17T06:34:42.096Z,10.02
2022-10-17T06:37:09.654Z,10.15
2022-10-17T06:42:09.896Z,10.07
2022-10-17T06:45:02.010Z,9.93
2022-10-17T06:47:37.808Z,9.80
2022-10-17T06:50:27.464Z,9.57
2022-10-17T06:53:14.522Z,10.23
2022-10-17T06:56:04.231Z,11.10
2022-10-17T06:58:50.888Z,10.70
2022-10-17T07:01:46.265Z,9.82
2022-10-17T07:04:14.688Z,9.32
2022-10-17T07:06:41.583Z,10.25
2022-10-17T07:09:15.058Z,9.05
2022-10-17T07:11:42.221Z,8.45
2022-10-17T07:14:08.998Z,8.77
2022-10-17T07:16:35.944Z,10.15
2022-10-17T07:19:09.111Z,10.23
2022-10-17T07:21:39.369Z,10.60
2022-10-17T07:24:07.905Z,9.35
2022-10-17T07:26:34.867Z,8.98
2022-10-17T07:29:02.481Z,7.28
2022-10-17T07:31:37.162Z,7.10
2022-10-17T07:34:03.960Z,7.22
2022-10-17T07:36:30.744Z,5.70
2022-10-17T07:38:59.330Z,5.72
2022-10-17T07:41:26.874Z,7.22
2022-10-17T07:43:53.943Z,6.40
2022-10-17T07:46:25.696Z,5.95
2022-10-17T07:48:52.580Z,6.07
2022-10-17T07:51:22.085Z,4.57
2022-10-17T07:53:49.059Z,5.45
2022-10-17T07:56:16.257Z,5.15
2022-10-17T07:58:43.136Z,5.97
2022-10-17T08:01:15.408Z,6.57
2022-10-17T08:03:44.386Z,6.93
2022-10-17T08:08:37.847Z,6.68
2022-10-17T08:11:06.828Z,6.68
2022-10-17T08:13:34.223Z,5.85
2022-10-17T08:16:02.196Z,5.63
2022-10-17T08:18:29.320Z,7.13
2022-10-17T08:21:00.305Z,5.93
2022-10-17T08:23:28.162Z,4.50
2022-10-17T08:25:54.880Z,6.05
2022-10-17T08:28:21.692Z,5.25
2022-10-17T08:30:48.603Z,5.20
2022-10-17T08:33:15.396Z,4.72
2022-10-17T08:35:42.180Z,4.90
2022-10-17T08:38:11.075Z,4.95
2022-10-17T08:40:42.894Z,4.10
2022-10-17T08:43:30.340Z,4.10
2022-10-17T08:46:03.248Z,4.28
2022-10-17T08:48:32.648Z,4.22
2022-10-17T08:51:00.719Z,4.07
2022-10-17T08:53:41.924Z,5.13
2022-10-17T08:56:25.155Z,3.25
2022-10-17T08:59:06.468Z,3.88
2022-10-17T09:01:34.437Z,4.82
2022-10-17T09:04:26.233Z,4.32
2022-10-17T09:07:11.741Z,4.82
2022-10-17T09:09:53.757Z,4.30
2022-10-17T09:12:58.064Z,4.95
2022-10-17T09:15:43.500Z,4.90
2022-10-17T09:18:19.816Z,3.78
2022-10-17T09:20:54.007Z,4.00
2022-10-17T09:23:32.181Z,3.55
2022-10-17T09:26:00.430Z,3.92
2022-10-17T09:28:38.407Z,2.85
2022-10-17T09:31:21.828Z,3.47
2022-10-17T09:33:54.284Z,2.70
2022-10-17T09:36:26.393Z,2.70
2022-10-17T09:38:57.790Z,2.40
2022-10-17T09:41:44.969Z,2.72
2022-10-17T09:44:29.472Z,3.38
2022-10-17T09:47:11.292Z,2.88
2022-10-17T09:49:40.159Z,2.60
2022-10-17T09:52:12.530Z,2.60
2022-10-17T09:54:51.521Z,1.63
2022-10-17T09:57:19.967Z,2.15
2022-10-17T10:00:05.544Z,1.85
2022-10-17T10:02:40.935Z,1.88
2022-10-17T10:05:25.933Z,1.92
2022-10-17T10:08:05.157Z,1.88
2022-10-17T10:10:32.526Z,1.80
2022-10-17T10:13:14.501Z,2.30
2022-10-17T10:15:46.917Z,2.05
2022-10-17T10:21:23.665Z,2.20
2022-10-17T10:24:04.536Z,2.38
2022-10-17T10:26:44.297Z,2.53
2022-10-17T10:29:34.402Z,2.08
2022-10-17T10:35:42.121Z,2.15
2022-10-17T10:38:11.360Z,1.80
2022-10-17T10:40:45.210Z,2.40
2022-10-17T10:43:23.167Z,2.33
2022-10-17T10:45:50.186Z,2.38
2022-10-17T10:48:22.882Z,2.20
2022-10-17T10:50:49.575Z,1.83
2022-10-17T10:53:35.568Z,2.05
2022-10-17T10:56:14.860Z,2.25
2022-10-17T10:58:43.593Z,2.10
2022-10-17T11:01:17.665Z,1.80
2022-10-17T11:04:01.377Z,2.30
2022-10-17T11:06:31.455Z,2.38
2022-10-17T11:08:58.193Z,2.05
2022-10-17T11:11:39.090Z,2.13
2022-10-17T11:14:32.162Z,1.60
2022-10-17T11:17:53.539Z,1.95
2022-10-17T11:20:47.717Z,2.00
2022-10-17T11:23:19.941Z,1.80
2022-10-17T11:25:48.639Z,2.08
2022-10-17T11:28:17.689Z,1.83
2022-10-17T11:30:48.461Z,1.83
2022-10-17T11:33:48.386Z,1.75
2022-10-17T11:36:18.596Z,2.17
2022-10-17T11:38:47.977Z,2.10
2022-10-17T11:41:27.800Z,1.77
2022-10-17T11:44:10.216Z,1.52
2022-10-17T11:46:37.836Z,1.50
2022-10-17T11:49:16.206Z,2.15
2022-10-17T11:52:18.556Z,1.77
2022-10-17T11:55:00.639Z,1.98
2022-10-17T11:58:01.591Z,2.05
2022-10-17T12:00:55.945Z,1.88
2022-10-17T12:03:44.740Z,2.20
2022-10-17T12:06:41.624Z,1.83
2022-10-17T12:09:12.397Z,1.65
2022-10-17T12:11:55.032Z,1.98
2022-10-17T12:14:49.810Z,2.58
2022-10-17T12:17:28.125Z,2.00
2022-10-17T12:20:17.722Z,1.95
2022-10-17T12:22:48.764Z,1.70
2022-10-17T12:25:39.173Z,2.00
2022-10-17T12:28:22.623Z,2.30
2022-10-17T12:31:08.812Z,1.92
2022-10-17T12:33:57.638Z,1.70
2022-10-17T12:36:34.443Z,1.50
2022-10-17T12:39:35.200Z,2.20
2022-10-17T12:42:33.555Z,2.10
2022-10-17T12:45:44.822Z,2.20
2022-10-17T12:48:46.009Z,2.08
2022-10-17T12:51:40.743Z,2.50
2022-10-17T12:54:16.839Z,2.15
2022-10-17T12:56:53.312Z,2.17
2022-10-17T12:59:25.836Z,1.85
2022-10-17T13:01:58.650Z,2.17
2022-10-17T13:04:28.157Z,2.00
2022-10-17T13:07:20.419Z,2.60
2022-10-17T13:09:50.637Z,1.70
2022-10-17T13:12:30.245Z,2.20
2022-10-17T13:14:57.522Z,1.90
2022-10-17T13:17:31.138Z,1.90
2022-10-17T13:19:58.685Z,2.33
2022-10-17T13:22:29.507Z,2.38
2022-10-17T13:25:08.862Z,1.70
2022-10-17T13:27:36.642Z,1.95
2022-10-17T13:30:31.230Z,2.00
2022-10-17T13:33:01.885Z,2.05
2022-10-17T13:38:26.677Z,1.90
2022-10-17T13:41:01.761Z,1.95
2022-10-17T13:43:40.372Z,2.08
2022-10-17T13:46:35.718Z,1.80
2022-10-17T13:48:54.569Z,1.95
2022-10-17T13:51:22.043Z,2.08
2022-10-17T13:56:28.807Z,2.10
2022-10-17T13:59:05.216Z,1.98
2022-10-17T14:01:34.567Z,1.73
2022-10-17T14:04:08.945Z,2.05
2022-10-17T14:06:47.559Z,1.98
2022-10-17T14:09:22.483Z,1.77
2022-10-17T14:12:08.716Z,1.42
2022-10-17T14:14:58.025Z,1.98
2022-10-17T14:17:28.283Z,1.90
2022-10-17T14:20:14.217Z,3.33
2022-10-17T14:22:54.392Z,1.90
2022-10-17T14:28:09.320Z,2.10
2022-10-17T14:30:55.644Z,1.92
2022-10-17T14:33:30.684Z,2.75
2022-10-17T14:36:00.007Z,4.05
2022-10-17T14:38:28.586Z,3.00
2022-10-17T14:41:29.632Z,2.58
2022-10-17T14:43:58.359Z,2.95
2022-10-17T14:46:25.556Z,2.38
2022-10-17T14:48:59.216Z,3.28
2022-10-17T14:51:26.063Z,2.88
2022-10-17T14:54:26.388Z,3.08
2022-10-17T14:56:56.381Z,2.53
2022-10-17T14:59:52.158Z,2.38
2022-10-17T15:02:12.051Z,2.20
2022-10-17T15:04:38.867Z,2.60
2022-10-17T15:07:05.691Z,2.78
2022-10-17T15:09:32.820Z,3.38
2022-10-17T15:12:04.687Z,4.30
2022-10-17T15:14:31.500Z,3.75
2022-10-17T15:16:58.364Z,4.82
2022-10-17T15:19:27.297Z,4.45
2022-10-17T15:21:54.135Z,5.47
2022-10-17T15:24:20.960Z,6.00
2022-10-17T15:26:47.913Z,5.32
2022-10-17T15:29:16.155Z,4.85
2022-10-17T15:34:09.632Z,4.05
2022-10-17T15:36:40.355Z,4.95
2022-10-17T15:39:07.328Z,4.65
2022-10-17T15:41:52.880Z,4.60
2022-10-17T15:44:19.863Z,4.20
2022-10-17T15:46:46.754Z,3.85
2022-10-17T15:49:15.070Z,4.22
2022-10-17T15:54:10.737Z,5.00
2022-10-17T15:56:40.077Z,4.70
2022-10-17T15:59:12.965Z,3.63
2022-10-17T16:01:40.377Z,3.50
2022-10-17T16:04:14.818Z,4.78
2022-10-17T16:06:42.713Z,4.13
2022-10-17T16:09:10.185Z,3.60
2022-10-17T16:11:42.116Z,5.05
2022-10-17T16:14:14.236Z,3.78
2022-10-17T16:16:41.523Z,4.53
2022-10-17T16:19:08.779Z,5.07
2022-10-17T16:21:40.650Z,6.07
2022-10-17T16:24:11.340Z,6.85
2022-10-17T16:26:43.100Z,7.90
2022-10-17T16:29:10.345Z,9.20
2022-10-17T16:31:41.184Z,10.77
2022-10-17T16:34:11.718Z,8.52
2022-10-17T16:36:39.119Z,10.18
2022-10-17T16:39:06.638Z,9.77
2022-10-17T16:41:38.337Z,9.70
2022-10-17T16:44:07.105Z,7.90
2022-10-17T16:46:36.557Z,8.02
2022-10-17T16:49:05.259Z,11.60
2022-10-17T16:51:33.797Z,14.40
2022-10-17T16:56:32.767Z,14.63
2022-10-17T16:59:00.570Z,18.08
2022-10-17T17:01:29.862Z,17.88
2022-10-17T17:03:57.078Z,22.70
2022-10-17T17:06:26.863Z,18.45
2022-10-17T17:08:54.800Z,13.20
2022-10-17T17:11:23.730Z,12.75
2022-10-17T17:13:50.860Z,8.43
2022-10-17T17:16:22.376Z,8.20
2022-10-17T17:18:52.022Z,5.82
2022-10-17T17:21:18.899Z,8.60
2022-10-17T17:23:45.705Z,12.50
2022-10-17T17:26:15.155Z,10.40
2022-10-17T17:28:42.971Z,9.50
2022-10-17T17:31:12.075Z,7.82
2022-10-17T17:33:39.676Z,8.75
2022-10-17T17:36:07.268Z,5.82
2022-10-17T17:38:35.419Z,7.15
2022-10-17T17:41:02.883Z,8.15
2022-10-17T17:43:30.172Z,8.25
2022-10-17T17:45:56.975Z,6.55
2022-10-17T17:48:24.771Z,8.02
2022-10-17T17:50:51.706Z,7.22
2022-10-17T17:53:18.948Z,6.82
2022-10-17T17:55:45.728Z,7.22
2022-10-17T17:58:12.645Z,8.95
2022-10-17T18:00:40.902Z,10.60
2022-10-17T18:03:08.193Z,15.32
2022-10-17T18:05:35.406Z,11.23
2022-10-17T18:08:06.583Z,8.85
2022-10-17T18:10:38.851Z,8.73
2022-10-17T18:13:05.896Z,7.25
2022-10-17T18:15:32.881Z,8.63
2022-10-17T18:18:00.181Z,7.85
2022-10-17T18:20:29.822Z,8.35
2022-10-17T18:23:01.930Z,7.45
2022-10-17T18:25:31.175Z,8.50
2022-10-17T18:27:58.161Z,8.80
2022-10-17T18:30:27.285Z,7.43
2022-10-17T18:32:55.936Z,8.55
2022-10-17T18:35:23.319Z,8.20
2022-10-17T18:37:50.564Z,8.82
2022-10-17T18:40:18.923Z,9.35
2022-10-17T18:42:48.155Z,9.90
2022-10-17T18:45:15.830Z,7.40
2022-10-17T18:47:52.700Z,7.55
2022-10-17T18:50:20.700Z,6.43
2022-10-17T18:52:50.887Z,4.15
2022-10-17T18:55:20.555Z,3.83
2022-10-17T18:57:49.330Z,2.80
2022-10-17T19:00:19.240Z,2.85
2022-10-17T19:02:46.070Z,2.35
2022-10-17T19:05:12.869Z,2.60
2022-10-17T19:07:39.694Z,2.30
2022-10-17T19:10:06.822Z,3.22
2022-10-17T19:12:33.829Z,2.53
2022-10-17T19:15:00.624Z,2.08
2022-10-17T19:17:27.684Z,2.40
2022-10-17T19:19:55.221Z,2.38
2022-10-17T19:22:22.080Z,2.40
2022-10-17T19:24:51.248Z,2.47
2022-10-17T19:27:20.311Z,2.90
2022-10-17T19:29:47.089Z,4.75
2022-10-17T19:32:16.768Z,4.82
2022-10-17T19:34:46.038Z,4.60
2022-10-17T19:37:13.005Z,4.30
2022-10-17T19:39:39.812Z,5.00
2022-10-17T19:42:07.144Z,5.00
2022-10-17T19:44:37.005Z,6.07
2022-10-17T19:47:03.970Z,6.50
2022-10-17T19:49:30.871Z,6.50
2022-10-17T19:51:57.795Z,6.57
2022-10-17T19:54:24.658Z,6.50
2022-10-17T19:56:53.927Z,4.18
2022-10-17T19:59:20.904Z,5.60
2022-10-17T20:01:48.005Z,5.75
2022-10-17T20:04:17.735Z,4.20
2022-10-17T20:06:48.856Z,5.15
2022-10-17T20:09:17.675Z,4.18
2022-10-17T20:14:14.231Z,2.75
2022-10-17T20:16:41.168Z,2.92
2022-10-17T20:19:10.697Z,3.42
2022-10-17T20:21:39.742Z,2.95
2022-10-17T20:24:08.184Z,3.40
2022-10-17T20:26:39.609Z,3.38
2022-10-17T20:29:17.838Z,4.40
2022-10-17T20:31:47.627Z,4.25
2022-10-17T20:34:17.038Z,4.13
2022-10-17T20:36:49.466Z,3.95
2022-10-17T20:39:20.301Z,3.75
2022-10-17T20:41:52.298Z,4.32
2022-10-17T20:44:19.123Z,4.35
2022-10-17T20:47:00.653Z,3.67
2022-10-17T20:49:30.578Z,3.45
2022-10-17T20:52:00.171Z,3.45
2022-10-17T20:54:28.420Z,3.20
2022-10-17T20:56:55.319Z,2.67
2022-10-17T20:59:22.174Z,2.42
2022-10-17T21:01:49.081Z,2.80
2022-10-17T21:04:44.339Z,3.00
2022-10-17T21:07:02.716Z,4.00
2022-10-17T21:09:29.640Z,3.72
2022-10-17T21:11:56.967Z,4.03
2022-10-17T21:14:24.974Z,3.88
2022-10-17T21:16:52.362Z,4.47
2022-10-17T21:19:19.373Z,4.57
2022-10-17T21:21:46.681Z,4.63
2022-10-17T21:24:16.917Z,5.18
2022-10-17T21:26:45.116Z,5.45
2022-10-17T21:29:13.203Z,5.72
2022-10-17T21:31:42.324Z,4.30
2022-10-17T21:34:14.734Z,5.00
2022-10-17T21:36:41.906Z,3.65
2022-10-17T21:39:10.244Z,3.75
2022-10-17T21:41:37.250Z,3.33
2022-10-17T21:44:07.112Z,4.18
2022-10-17T21:46:34.209Z,4.25
2022-10-17T21:49:01.636Z,4.30
2022-10-17T21:51:28.781Z,3.60
2022-10-17T21:53:57.632Z,4.10
2022-10-17T21:56:31.163Z,4.25
2022-10-17T21:58:58.872Z,3.67
2022-10-17T22:01:28.258Z,3.75
2022-10-17T22:03:57.754Z,3.72
2022-10-17T22:06:44.773Z,3.53
2022-10-17T22:09:14.520Z,3.35
2022-10-17T22:11:42.307Z,3.30
2022-10-17T22:14:13.009Z,2.95
2022-10-17T22:16:40.384Z,4.00
2022-10-17T22:19:08.412Z,3.60
2022-10-17T22:21:36.711Z,3.30
2022-10-17T22:24:06.404Z,3.72
2022-10-17T22:26:35.177Z,3.83
2022-10-17T22:31:29.090Z,2.83
2022-10-17T22:33:56.053Z,3.75
2022-10-17T22:36:23.077Z,3.53
2022-10-17T22:38:49.948Z,3.65
2022-10-17T22:41:17.054Z,3.75
2022-10-17T22:43:44.403Z,3.92
2022-10-17T22:46:13.093Z,3.35
2022-10-17T22:48:40.414Z,3.75
2022-10-17T22:51:07.401Z,3.03
2022-10-17T22:53:35.250Z,3.28
2022-10-17T22:56:03.405Z,3.65
2022-10-17T22:58:31.869Z,3.95
2022-10-17T23:00:58.977Z,3.03
2022-10-17T23:03:27.712Z,2.83
2022-10-17T23:05:54.750Z,3.30
2022-10-17T23:08:21.569Z,3.85
2022-10-17T23:10:48.561Z,3.90
2022-10-17T23:13:18.871Z,2.72
2022-10-17T23:15:46.021Z,3.30
2022-10-17T23:18:12.928Z,3.20
2022-10-17T23:20:39.665Z,2.95
2022-10-17T23:23:06.676Z,3.55
2022-10-17T23:25:34.643Z,2.85
2022-10-17T23:28:02.019Z,3.67
2022-10-17T23:30:29.179Z,3.25
2022-10-17T23:32:55.932Z,3.25
2022-10-17T23:35:23.166Z,4.80
2022-10-17T23:37:49.971Z,2.60
2022-10-17T23:40:16.926Z,3.50
2022-10-17T23:42:43.815Z,3.35
2022-10-17T23:45:11.168Z,4.28
2022-10-17T23:47:37.975Z,4.00
2022-10-17T23:50:05.688Z,3.80
2022-10-17T23:52:32.800Z,2.75
2022-10-17T23:54:59.627Z,3.80
2022-10-17T23:57:26.487Z,3.25
2022-10-17T23:59:53.266Z,3.33
